createdAt,value
2018-04-22T00:00:24.882Z,101630.05
2018-04-22T00:02:53.734Z,101623.08
2018-04-22T00:05:22.448Z,101631.11
2018-04-22T00:07:50.559Z,101623.67
2018-04-22T00:10:19.019Z,101625.69
2018-04-22T00:12:47.830Z,101625.98
2018-04-22T00:15:15.969Z,101625.39
2018-04-22T00:17:44.056Z,101623.30
2018-04-22T00:20:12.476Z,101622.94
2018-04-22T00:22:40.578Z,101620.89
2018-04-22T00:25:09.559Z,101618.21
2018-04-22T00:27:37.652Z,101619.00
2018-04-22T00:30:05.776Z,101618.23
2018-04-22T00:32:33.891Z,101617.73
2018-04-22T00:35:02.006Z,101616.86
2018-04-22T00:37:30.099Z,101610.18
2018-04-22T00:39:58.569Z,101603.02
2018-04-22T00:42:26.679Z,101609.28
2018-04-22T00:44:54.764Z,101609.20
2018-04-22T00:47:22.881Z,101611.25
2018-04-22T00:49:50.988Z,101608.41
2018-04-22T00:52:19.544Z,101601.02
2018-04-22T00:54:47.649Z,101596.52
2018-04-22T00:57:15.785Z,101596.36
2018-04-22T00:59:43.923Z,101600.41
2018-04-22T01:02:12.009Z,101590.58
2018-04-22T01:04:45.714Z,101594.03
2018-04-22T01:07:13.798Z,101590.90
2018-04-22T01:09:41.876Z,101590.24
2018-04-22T01:12:09.980Z,101579.97
2018-04-22T01:14:38.070Z,101571.27
2018-04-22T01:17:06.166Z,101577.22
2018-04-22T01:19:34.356Z,101572.81
2018-04-22T01:22:02.435Z,101575.04
2018-04-22T01:24:30.543Z,101574.78
2018-04-22T01:26:58.667Z,101575.58
2018-04-22T01:29:26.809Z,101573.14
2018-04-22T01:31:54.909Z,101567.00
2018-04-22T01:34:29.204Z,101569.61
2018-04-22T01:36:57.287Z,101564.59
2018-04-22T01:39:25.442Z,101565.22
2018-04-22T01:41:53.533Z,101557.75
2018-04-22T01:44:22.247Z,101549.20
2018-04-22T01:46:50.713Z,101544.03
2018-04-22T01:49:19.253Z,101549.99
2018-04-22T01:51:47.359Z,101541.23
2018-04-22T01:54:15.434Z,101528.44
2018-04-22T01:56:43.541Z,101521.74
2018-04-22T01:59:13.363Z,101523.80
2018-04-22T02:01:41.448Z,101526.66
2018-04-22T02:04:09.777Z,101518.31
2018-04-22T02:06:38.397Z,101514.62
2018-04-22T02:09:06.509Z,101508.85
2018-04-22T02:11:34.615Z,101501.31
2018-04-22T02:14:02.710Z,101497.55
2018-04-22T02:16:30.805Z,101487.23
2018-04-22T02:18:58.936Z,101478.50
2018-04-22T02:21:27.014Z,101475.83
2018-04-22T02:23:55.128Z,101467.70
2018-04-22T02:26:23.211Z,101472.94
2018-04-22T02:28:51.309Z,101472.42
2018-04-22T02:31:19.410Z,101469.28
2018-04-22T02:33:47.499Z,101473.95
2018-04-22T02:36:15.594Z,101467.02
2018-04-22T02:38:43.711Z,101464.22
2018-04-22T02:41:11.802Z,101460.19
2018-04-22T02:43:39.973Z,101455.98
2018-04-22T02:46:07.999Z,101452.51
2018-04-22T02:48:37.454Z,101442.60
2018-04-22T02:51:05.663Z,101440.50
2018-04-22T02:53:33.792Z,101433.13
2018-04-22T02:56:01.901Z,101437.29
2018-04-22T02:58:29.988Z,101430.20
2018-04-22T03:00:58.112Z,101420.45
2018-04-22T03:03:26.235Z,101414.15
2018-04-22T03:18:59.450Z,101392.61
2018-04-22T03:21:27.554Z,101386.29
2018-04-22T03:23:55.656Z,101382.15
2018-04-22T03:26:23.763Z,101380.98
2018-04-22T03:28:51.847Z,101375.39
2018-04-22T03:31:20.033Z,101371.47
2018-04-22T03:33:48.210Z,101370.76
2018-04-22T03:36:17.427Z,101369.59
2018-04-22T03:38:45.533Z,101365.55
2018-04-22T03:41:13.633Z,101369.25
2018-04-22T03:43:41.744Z,101364.53
2018-04-22T03:46:09.853Z,101362.34
2018-04-22T03:48:37.998Z,101361.73
2018-04-22T03:51:06.107Z,101356.75
2018-04-22T03:53:34.218Z,101356.50
2018-04-22T03:56:02.313Z,101353.62
2018-04-22T03:58:30.410Z,101346.22
2018-04-22T04:00:59.492Z,101357.02
2018-04-22T04:03:27.579Z,101348.75
2018-04-22T04:05:56.507Z,101345.77
2018-04-22T04:08:24.626Z,101344.09
2018-04-22T04:10:52.782Z,101340.55
2018-04-22T04:13:20.873Z,101328.63
2018-04-22T04:15:49.830Z,101328.55
2018-04-22T04:21:44.040Z,101326.62
2018-04-22T04:27:45.112Z,101327.02
2018-04-22T04:30:13.214Z,101323.41
2018-04-22T04:35:24.734Z,101317.91
2018-04-22T04:37:53.843Z,101316.41
2018-04-22T04:50:06.947Z,101323.38
2018-04-22T04:52:35.043Z,101327.92
2018-04-22T04:55:03.156Z,101328.63
2018-04-22T04:57:31.339Z,101327.19
2018-04-22T04:59:59.842Z,101326.72
2018-04-22T05:02:27.913Z,101329.80
2018-04-22T05:04:56.022Z,101317.46
2018-04-22T05:07:24.128Z,101330.53
2018-04-22T05:09:52.222Z,101334.39
2018-04-22T05:12:20.345Z,101328.20
2018-04-22T05:14:49.395Z,101331.11
2018-04-22T05:17:22.972Z,101331.45
2018-04-22T05:19:56.671Z,101325.01
2018-04-22T05:22:30.260Z,101331.17
2018-04-22T05:24:58.376Z,101329.39
2018-04-22T05:27:26.504Z,101331.84
2018-04-22T05:29:54.589Z,101331.51
2018-04-22T05:32:22.694Z,101331.75
2018-04-22T05:34:50.778Z,101323.50
2018-04-22T05:37:18.880Z,101318.92
2018-04-22T05:49:38.336Z,101314.29
2018-04-22T05:52:06.423Z,101314.03
2018-04-22T05:54:34.542Z,101311.14
2018-04-22T05:57:03.314Z,101306.15
2018-04-22T05:59:31.417Z,101308.87
2018-04-22T06:01:59.506Z,101308.12
2018-04-22T06:04:27.647Z,101294.08
2018-04-22T06:06:55.840Z,101286.20
2018-04-22T06:09:23.898Z,101266.05
2018-04-22T06:24:52.015Z,101249.41
2018-04-22T06:27:21.264Z,101241.20
2018-04-22T06:29:49.331Z,101242.58
2018-04-22T06:32:17.445Z,101237.56
2018-04-22T06:34:45.536Z,101228.14
2018-04-22T06:37:13.934Z,101233.42
2018-04-22T06:39:42.173Z,101232.55
2018-04-22T06:42:10.300Z,101239.47
2018-04-22T06:44:38.683Z,101230.31
2018-04-22T06:47:06.771Z,101229.19
2018-04-22T06:49:34.919Z,101238.81
2018-04-22T06:52:02.987Z,101229.17
2018-04-22T06:54:31.083Z,101229.19
2018-04-22T06:56:59.184Z,101223.76
2018-04-22T06:59:27.583Z,101223.53
2018-04-22T07:01:55.699Z,101226.23
2018-04-22T07:04:23.815Z,101221.95
2018-04-22T07:06:51.907Z,101210.22
2018-04-22T07:09:20.355Z,101209.68
2018-04-22T07:11:48.483Z,101206.73
2018-04-22T07:14:16.607Z,101205.26
2018-04-22T07:26:30.117Z,101204.99
2018-04-22T07:28:58.213Z,101200.79
2018-04-22T07:31:26.334Z,101186.24
2018-04-22T07:33:54.456Z,101181.94
2018-04-22T07:36:22.596Z,101179.69
2018-04-22T07:38:50.795Z,101172.08
2018-04-22T07:41:19.607Z,101167.11
2018-04-22T07:43:47.712Z,101167.09
2018-04-22T07:46:15.833Z,101168.98
2018-04-22T07:48:43.915Z,101163.60
2018-04-22T07:51:12.042Z,101154.63
2018-04-22T07:53:40.160Z,101156.41
2018-04-22T07:56:08.256Z,101147.42
2018-04-22T07:58:36.381Z,101144.61
2018-04-22T08:01:04.453Z,101158.41
2018-04-22T08:03:32.617Z,101163.08
2018-04-22T08:06:00.737Z,101164.58
2018-04-22T08:08:29.436Z,101161.36
2018-04-22T08:10:58.567Z,101146.80
2018-04-22T08:13:27.158Z,101140.81
2018-04-22T08:15:55.254Z,101145.23
2018-04-22T08:18:23.351Z,101128.28
2018-04-22T08:33:51.526Z,101118.42
2018-04-22T08:36:19.563Z,101113.45
2018-04-22T08:38:47.650Z,101111.93
2018-04-22T08:41:15.752Z,101110.78
2018-04-22T08:43:44.783Z,101113.86
2018-04-22T08:46:12.928Z,101116.31
2018-04-22T08:48:41.059Z,101121.84
2018-04-22T08:51:09.147Z,101126.33
2018-04-22T08:53:37.245Z,101127.32
2018-04-22T08:56:05.361Z,101143.05
2018-04-22T08:58:33.461Z,101139.14
2018-04-22T09:01:01.546Z,101134.05
2018-04-22T09:03:29.656Z,101126.77
2018-04-22T09:05:57.777Z,101141.05
2018-04-22T09:08:26.416Z,101159.50
2018-04-22T09:10:54.536Z,101141.34
2018-04-22T09:13:23.061Z,101147.88
2018-04-22T09:15:51.823Z,101138.09
2018-04-22T09:18:19.919Z,101138.88
2018-04-22T09:20:48.036Z,101147.30
2018-04-22T09:23:16.135Z,101150.48
2018-04-22T09:25:44.222Z,101154.22
2018-04-22T09:28:13.202Z,101162.68
2018-04-22T09:30:42.119Z,101160.38
2018-04-22T09:33:10.251Z,101153.54
2018-04-22T09:35:38.467Z,101160.81
2018-04-22T09:38:06.563Z,101166.36
2018-04-22T09:40:34.672Z,101153.21
2018-04-22T09:43:02.842Z,101154.82
2018-04-22T09:45:36.687Z,101159.48
2018-04-22T09:48:10.449Z,101159.22
2018-04-22T09:50:38.808Z,101131.11
2018-04-22T09:53:06.896Z,101108.30
2018-04-22T09:55:35.002Z,101115.38
2018-04-22T09:58:03.101Z,101107.73
2018-04-22T10:00:32.117Z,101098.52
2018-04-22T10:03:06.430Z,101096.52
2018-04-22T10:05:40.049Z,101085.23
2018-04-22T10:08:08.147Z,101077.60
2018-04-22T10:10:37.135Z,101076.32
2018-04-22T10:13:05.204Z,101081.70
2018-04-22T10:15:33.287Z,101073.72
2018-04-22T10:18:02.208Z,101070.99
2018-04-22T10:20:30.313Z,101059.84
2018-04-22T10:22:58.404Z,101057.40
2018-04-22T10:25:26.495Z,101056.42
2018-04-22T10:27:55.536Z,101052.47
2018-04-22T10:30:23.986Z,101045.20
2018-04-22T10:32:52.743Z,101046.80
2018-04-22T10:35:20.839Z,101041.31
2018-04-22T10:37:48.963Z,101031.86
2018-04-22T10:40:17.057Z,101031.28
2018-04-22T10:42:45.188Z,101023.89
2018-04-22T10:45:13.331Z,101014.00
2018-04-22T10:47:41.460Z,101013.98
2018-04-22T10:50:09.552Z,101004.38
2018-04-22T10:52:37.649Z,100995.66
2018-04-22T10:55:05.765Z,100997.59
2018-04-22T10:57:33.859Z,100990.41
2018-04-22T11:00:01.991Z,100983.97
2018-04-22T11:02:30.079Z,100975.16
2018-04-22T11:17:59.002Z,100934.25
2018-04-22T11:20:27.141Z,100928.87
2018-04-22T11:22:55.269Z,100932.58
2018-04-22T11:25:23.361Z,100925.59
2018-04-22T11:27:51.461Z,100927.96
2018-04-22T11:30:20.943Z,100933.23
2018-04-22T11:32:49.067Z,100924.92
2018-04-22T11:35:17.879Z,100930.03
2018-04-22T11:37:45.979Z,100926.68
2018-04-22T11:40:14.091Z,100927.25
2018-04-22T11:42:42.195Z,100922.20
2018-04-22T11:45:10.327Z,100921.37
2018-04-22T11:47:38.450Z,100921.70
2018-04-22T11:50:06.877Z,100921.42
2018-04-22T11:52:35.851Z,100916.73
2018-04-22T11:55:04.183Z,100916.72
2018-04-22T11:57:32.291Z,100920.77
2018-04-22T12:00:01.832Z,100922.20
2018-04-22T12:02:29.964Z,100920.11
2018-04-22T12:04:58.122Z,100918.72
2018-04-22T12:07:26.195Z,100925.71
2018-04-22T12:09:54.301Z,100918.07
2018-04-22T12:12:23.173Z,100917.55
2018-04-22T12:14:51.278Z,100913.97
2018-04-22T12:17:19.683Z,100910.84
2018-04-22T12:19:47.773Z,100909.53
2018-04-22T12:22:15.899Z,100910.77
2018-04-22T12:24:44.303Z,100911.09
2018-04-22T12:27:12.396Z,100902.72
2018-04-22T12:29:41.315Z,100902.72
2018-04-22T12:32:10.048Z,100897.78
2018-04-22T12:34:38.157Z,100893.55
2018-04-22T12:37:06.462Z,100896.59
2018-04-22T12:39:34.560Z,100900.58
2018-04-22T12:42:02.651Z,100891.22
2018-04-22T12:44:30.756Z,100896.44
2018-04-22T12:46:59.899Z,100890.66
2018-04-22T12:49:28.095Z,100895.42
2018-04-22T12:51:56.547Z,100893.81
2018-04-22T12:54:24.641Z,100893.98
2018-04-22T12:56:52.787Z,100894.76
2018-04-22T12:59:20.932Z,100897.80
2018-04-22T13:01:48.977Z,100894.14
2018-04-22T13:04:17.792Z,100897.73
2018-04-22T13:06:45.904Z,100896.88
2018-04-22T13:09:18.964Z,100894.08
2018-04-22T13:11:47.387Z,100903.07
2018-04-22T13:14:15.483Z,100903.00
2018-04-22T13:16:43.579Z,100901.02
2018-04-22T13:19:12.083Z,100909.22
2018-04-22T13:21:40.485Z,100905.97
2018-04-22T13:24:08.563Z,100905.46
2018-04-22T13:26:36.675Z,100899.44
2018-04-22T13:29:04.789Z,100898.52
2018-04-22T13:31:32.879Z,100896.95
2018-04-22T13:34:01.012Z,100892.78
2018-04-22T13:36:29.094Z,100884.30
2018-04-22T13:38:57.237Z,100886.00
2018-04-22T13:41:25.328Z,100883.27
2018-04-22T13:43:53.436Z,100887.08
2018-04-22T13:46:22.156Z,100883.27
2018-04-22T13:48:50.718Z,100877.09
2018-04-22T13:51:19.276Z,100875.86
2018-04-22T13:53:47.348Z,100887.86
2018-04-22T13:56:15.451Z,100884.30
2018-04-22T13:58:43.840Z,100883.73
2018-04-22T14:01:11.942Z,100876.34
2018-04-22T14:03:41.029Z,100876.47
2018-04-22T14:06:09.231Z,100879.61
2018-04-22T14:08:37.537Z,100877.28
2018-04-22T14:11:05.667Z,100874.09
2018-04-22T14:13:33.803Z,100864.03
2018-04-22T14:16:02.160Z,100871.39
2018-04-22T14:18:30.262Z,100878.38
2018-04-22T14:20:58.382Z,100881.09
2018-04-22T14:23:27.270Z,100886.52
2018-04-22T14:26:01.226Z,100884.08
2018-04-22T14:28:29.557Z,100894.13
2018-04-22T14:30:59.064Z,100887.52
2018-04-22T14:33:27.174Z,100860.39
2018-04-22T14:35:55.320Z,100859.99
2018-04-22T14:38:23.396Z,100873.97
2018-04-22T14:40:57.985Z,100868.59
2018-04-22T14:43:31.781Z,100867.70
2018-04-22T14:46:18.498Z,100873.73
2018-04-22T14:48:58.495Z,100871.48
2018-04-22T14:51:26.597Z,100863.44
2018-04-22T14:53:55.540Z,100865.08
2018-04-22T14:56:23.644Z,100861.94
2018-04-22T14:58:51.727Z,100856.32
2018-04-22T15:01:20.117Z,100856.99
2018-04-22T15:03:48.224Z,100862.28
2018-04-22T15:06:21.743Z,100860.19
2018-04-22T15:08:50.475Z,100858.92
2018-04-22T15:11:18.562Z,100862.39
2018-04-22T15:13:47.652Z,100866.48
2018-04-22T15:16:15.772Z,100876.30
2018-04-22T15:18:43.869Z,100877.15
2018-04-22T15:21:11.981Z,100863.94
2018-04-22T15:23:40.411Z,100875.28
2018-04-22T15:26:08.503Z,100865.98
2018-04-22T15:28:36.631Z,100871.45
2018-04-22T15:31:04.774Z,100873.27
2018-04-22T15:33:33.263Z,100866.28
2018-04-22T15:36:01.385Z,100862.12
2018-04-22T15:38:29.575Z,100864.22
2018-04-22T15:40:57.649Z,100852.09
2018-04-22T15:43:25.780Z,100864.80
2018-04-22T15:45:53.864Z,100868.38
2018-04-22T15:48:21.982Z,100867.92
2018-04-22T15:50:50.099Z,100860.25
2018-04-22T15:53:18.217Z,100870.47
2018-04-22T15:55:51.884Z,100875.66
2018-04-22T15:58:25.542Z,100881.91
2018-04-22T16:00:54.402Z,100883.70
2018-04-22T16:03:22.506Z,100884.77
2018-04-22T16:05:51.224Z,100885.22
2018-04-22T16:08:20.064Z,100888.59
2018-04-22T16:10:48.158Z,100891.77
2018-04-22T16:13:17.120Z,100886.12
2018-04-22T16:15:45.560Z,100891.41
2018-04-22T16:18:14.178Z,100895.87
2018-04-22T16:20:42.288Z,100888.53
2018-04-22T16:23:10.918Z,100895.90
2018-04-22T16:25:39.826Z,100896.84
2018-04-22T16:28:07.936Z,100891.37
2018-04-22T16:30:36.073Z,100886.70
2018-04-22T16:33:04.504Z,100886.95
2018-04-22T16:35:32.659Z,100879.39
2018-04-22T16:38:00.711Z,100878.76
2018-04-22T16:40:28.859Z,100881.40
2018-04-22T16:42:57.835Z,100887.67
2018-04-22T16:45:25.910Z,100884.48
2018-04-22T16:47:54.361Z,100888.19
2018-04-22T16:50:22.459Z,100874.17
2018-04-22T16:52:50.551Z,100885.03
2018-04-22T16:55:18.680Z,100884.28
2018-04-22T16:57:47.664Z,100881.79
2018-04-22T17:00:16.452Z,100876.75
2018-04-22T17:02:44.591Z,100871.52
2018-04-22T17:05:12.704Z,100872.16
2018-04-22T17:07:46.345Z,100871.91
2018-04-22T17:10:15.281Z,100879.19
2018-04-22T17:12:43.407Z,100883.91
2018-04-22T17:15:12.135Z,100884.72
2018-04-22T17:17:40.279Z,100874.49
2018-04-22T17:20:08.408Z,100872.13
2018-04-22T17:22:37.306Z,100877.07
2018-04-22T17:25:05.403Z,100863.94
2018-04-22T17:27:33.518Z,100865.69
2018-04-22T17:30:01.608Z,100872.52
2018-04-22T17:32:29.706Z,100877.12
2018-04-22T17:34:57.809Z,100875.49
2018-04-22T17:37:25.891Z,100883.83
2018-04-22T17:39:53.983Z,100881.67
2018-04-22T17:42:22.133Z,100883.19
2018-04-22T17:44:50.207Z,100883.80
2018-04-22T17:47:18.945Z,100889.69
2018-04-22T17:49:47.379Z,100890.34
2018-04-22T17:52:15.479Z,100884.46
2018-04-22T17:54:44.272Z,100884.56
2018-04-22T17:57:12.994Z,100877.09
2018-04-22T17:59:41.949Z,100879.62
2018-04-22T18:02:10.118Z,100880.56
2018-04-22T18:04:38.244Z,100884.52
2018-04-22T18:07:06.343Z,100885.75
2018-04-22T18:09:34.433Z,100890.41
2018-04-22T18:12:03.119Z,100890.55
2018-04-22T18:14:32.124Z,100892.14
2018-04-22T18:17:00.824Z,100889.28
2018-04-22T18:19:30.422Z,100896.61
2018-04-22T18:22:03.862Z,100898.15
2018-04-22T18:24:31.960Z,100901.59
2018-04-22T18:27:00.041Z,100899.66
2018-04-22T18:29:28.805Z,100910.50
2018-04-22T18:31:56.895Z,100903.02
2018-04-22T18:34:24.992Z,100901.13
2018-04-22T18:36:53.147Z,100903.51
2018-04-22T18:39:21.237Z,100908.16
2018-04-22T18:41:49.375Z,100901.28
2018-04-22T18:44:17.504Z,100911.45
2018-04-22T18:46:45.649Z,100919.48
2018-04-22T18:49:13.744Z,100913.81
2018-04-22T18:51:41.975Z,100921.70
2018-04-22T18:54:10.066Z,100928.94
2018-04-22T18:56:38.318Z,100931.60
2018-04-22T18:59:06.425Z,100928.06
2018-04-22T19:01:34.566Z,100929.10
2018-04-22T19:04:02.720Z,100927.23
2018-04-22T19:06:31.586Z,100925.58
2018-04-22T19:08:59.688Z,100926.52
2018-04-22T19:11:28.755Z,100932.89
2018-04-22T19:13:57.147Z,100928.80
2018-04-22T19:16:25.292Z,100919.17
2018-04-22T19:18:53.378Z,100921.31
2018-04-22T19:21:21.495Z,100933.09
2018-04-22T19:23:49.590Z,100934.75
2018-04-22T19:26:17.721Z,100937.80
2018-04-22T19:28:45.873Z,100948.22
2018-04-22T19:31:13.942Z,100947.11
2018-04-22T19:33:42.287Z,100948.22
2018-04-22T19:36:10.404Z,100950.70
2018-04-22T19:38:38.471Z,100956.58
2018-04-22T19:41:06.577Z,100955.39
2018-04-22T19:43:34.696Z,100966.48
2018-04-22T19:46:02.787Z,100960.41
2018-04-22T19:48:30.897Z,100966.66
2018-04-22T19:50:59.372Z,100965.97
2018-04-22T19:53:27.449Z,100965.20
2018-04-22T19:55:55.601Z,100979.39
2018-04-22T19:58:23.726Z,100983.92
2018-04-22T20:00:51.810Z,100983.33
2018-04-22T20:03:20.794Z,100984.02
2018-04-22T20:05:49.476Z,100984.56
2018-04-22T20:08:17.569Z,100981.12
2018-04-22T20:10:45.685Z,100973.51
2018-04-22T20:13:14.584Z,100978.73
2018-04-22T20:15:42.687Z,100978.86
2018-04-22T20:18:11.532Z,100977.43
2018-04-22T20:20:40.546Z,100977.08
2018-04-22T20:23:09.275Z,100975.52
2018-04-22T20:25:37.428Z,100985.55
2018-04-22T20:28:05.530Z,100988.22
2018-04-22T20:30:33.689Z,100984.24
2018-04-22T20:33:01.791Z,100984.17
2018-04-22T20:35:29.903Z,100985.30
2018-04-22T20:37:58.284Z,100976.58
2018-04-22T20:40:26.400Z,100986.63
2018-04-22T20:42:55.142Z,100981.90
2018-04-22T20:45:24.176Z,100983.77
2018-04-22T20:47:52.268Z,100985.52
2018-04-22T20:50:20.346Z,100982.95
2018-04-22T20:52:49.692Z,100974.16
2018-04-22T20:55:17.884Z,100973.18
2018-04-22T20:57:46.339Z,100980.19
2018-04-22T21:00:15.410Z,100969.89
2018-04-22T21:02:45.231Z,100979.66
2018-04-22T21:05:15.036Z,100986.89
2018-04-22T21:07:43.110Z,100980.00
2018-04-22T21:10:11.502Z,100980.42
2018-04-22T21:12:40.621Z,100987.44
2018-04-22T21:15:08.700Z,100986.46
2018-04-22T21:17:36.822Z,100987.75
2018-04-22T21:20:09.954Z,100983.48
2018-04-22T21:22:38.843Z,100981.14
2018-04-22T21:25:06.967Z,100998.27
2018-04-22T21:30:14.447Z,101005.59
2018-04-22T21:32:42.531Z,101001.00
2018-04-22T21:35:10.823Z,101007.60
2018-04-22T21:37:38.935Z,101005.92
2018-04-22T21:40:08.559Z,101008.44
2018-04-22T21:42:37.376Z,101011.55
2018-04-22T21:45:05.494Z,101017.91
2018-04-22T21:47:39.799Z,101016.36
2018-04-22T21:50:07.898Z,101019.62
2018-04-22T21:52:36.015Z,101031.63
2018-04-22T21:55:04.099Z,101027.22
2018-04-22T21:57:32.203Z,101030.47
2018-04-22T22:00:00.295Z,101038.80
2018-04-22T22:02:28.411Z,101036.82
2018-04-22T22:04:56.507Z,101044.34
2018-04-22T22:07:24.583Z,101037.56
2018-04-22T22:09:52.684Z,101047.47
2018-04-22T22:12:20.772Z,101037.37
2018-04-22T22:14:48.871Z,101037.91
2018-04-22T22:17:16.985Z,101039.88
2018-04-22T22:19:46.003Z,101034.45
2018-04-22T22:22:19.531Z,101040.81
2018-04-22T22:24:47.623Z,101044.14
2018-04-22T22:27:15.721Z,101042.70
2018-04-22T22:29:43.847Z,101049.95
2018-04-22T22:32:11.943Z,101051.42
2018-04-22T22:34:40.031Z,101059.29
2018-04-22T22:37:08.139Z,101056.92
2018-04-22T22:39:36.242Z,101075.45
2018-04-22T22:42:04.913Z,101069.16
2018-04-22T22:44:33.731Z,101073.52
2018-04-22T22:47:02.599Z,101081.47
2018-04-22T22:49:31.063Z,101082.75
2018-04-22T22:51:59.149Z,101076.56
2018-04-22T22:54:27.249Z,101080.41
2018-04-22T22:56:56.611Z,101077.65
2018-04-22T22:59:24.707Z,101074.45
2018-04-22T23:01:52.779Z,101068.03
2018-04-22T23:04:20.944Z,101074.47
2018-04-22T23:06:49.003Z,101076.55
2018-04-22T23:09:17.175Z,101078.84
2018-04-22T23:11:45.262Z,101087.22
2018-04-22T23:14:13.355Z,101084.45
2018-04-22T23:16:41.475Z,101090.73
2018-04-22T23:19:15.145Z,101084.91
2018-04-22T23:21:43.959Z,101084.11
2018-04-22T23:24:12.367Z,101091.34
2018-04-22T23:26:40.418Z,101097.80
2018-04-22T23:29:08.573Z,101093.48
2018-04-22T23:31:36.647Z,101093.95
2018-04-22T23:34:04.728Z,101096.50
2018-04-22T23:36:32.817Z,101094.06
2018-04-22T23:39:00.940Z,101102.69
2018-04-22T23:41:29.027Z,101096.44
2018-04-22T23:43:57.139Z,101102.55
2018-04-22T23:46:25.226Z,101109.98
2018-04-22T23:48:53.306Z,101101.82
